Time;durP1;ratioP1;P1;durP2;ratioP2;P2;SDS_P1;SDS_P2;PMS_P1;PMS_P2;Temp;Humidity;BMP_temperature;BMP_pressure;BME280_temperature;BME280_humidity;BME280_pressure;Samples;Min_cycle;Max_cycle;Signal;HPM_P1;HPM_P2
2021/01/17 00:00:10;;;;;;;63.53;25.73;;;;;;;0.02;100.00;101109.63;5057301;28;20110;-75
2021/01/17 00:02:38;;;;;;;69.78;28.27;;;;;;;0.08;100.00;101104.28;5067169;28;20115;-74
2021/01/17 00:05:12;;;;;;;66.10;26.83;;;;;;;0.05;100.00;101106.97;5067125;28;20090;-75
2021/01/17 00:07:38;;;;;;;64.68;25.77;;;;;;;0.02;100.00;101099.97;5059237;28;20031;-74
2021/01/17 00:10:10;;;;;;;69.82;27.08;;;;;;;0.03;100.00;101096.44;5050848;28;20036;-74
2021/01/17 00:12:40;;;;;;;70.35;28.10;;;;;;;-0.01;100.00;101095.63;5039108;28;20486;-74
2021/01/17 00:15:11;;;;;;;70.43;27.42;;;;;;;0.00;100.00;101107.88;5070215;28;20119;-74
2021/01/17 00:17:40;;;;;;;64.65;26.65;;;;;;;0.04;100.00;101099.94;5053962;28;20028;-75
2021/01/17 00:20:17;;;;;;;67.70;26.83;;;;;;;0.03;100.00;101095.56;5055741;28;20123;-74
2021/01/17 00:22:43;;;;;;;64.18;26.27;;;;;;;-0.04;100.00;101092.13;5048526;28;20107;-75
2021/01/17 00:25:11;;;;;;;64.90;27.88;;;;;;;0.05;100.00;101096.41;5068180;28;20043;-75
2021/01/17 00:27:37;;;;;;;68.43;27.00;;;;;;;-0.02;100.00;101100.91;5051933;28;20071;-75
2021/01/17 00:30:05;;;;;;;73.95;29.90;;;;;;;0.02;100.00;101086.75;5069637;28;20059;-74
2021/01/17 00:32:30;;;;;;;69.43;27.80;;;;;;;0.05;100.00;101086.72;5053787;28;20494;-74
2021/01/17 00:34:56;;;;;;;69.60;26.30;;;;;;;0.14;100.00;101083.06;5079661;28;20074;-74
2021/01/17 00:37:21;;;;;;;59.15;25.05;;;;;;;0.08;100.00;101069.97;5095398;28;20040;-75
2021/01/17 00:39:47;;;;;;;68.97;27.25;;;;;;;0.08;100.00;101077.88;5069793;28;20031;-74
2021/01/17 00:42:14;;;;;;;68.15;28.88;;;;;;;0.09;100.00;101083.16;5073813;28;20064;-77
2021/01/17 00:44:43;;;;;;;66.53;27.35;;;;;;;0.13;100.00;101087.47;5072430;28;20121;-75
2021/01/17 00:47:13;;;;;;;67.43;27.80;;;;;;;0.10;100.00;101089.28;5082030;28;20040;-74
2021/01/17 00:49:39;;;;;;;65.68;26.95;;;;;;;-0.01;100.00;101084.19;5032136;28;20056;-74
2021/01/17 00:52:04;;;;;;;63.50;27.20;;;;;;;0.12;100.00;101082.22;5070216;28;20127;-74
2021/01/17 00:54:30;;;;;;;61.35;26.55;;;;;;;0.05;100.00;101080.59;5053957;28;20124;-75
2021/01/17 00:56:55;;;;;;;71.00;27.88;;;;;;;0.19;100.00;101073.28;5069646;28;20512;-74
2021/01/17 00:59:27;;;;;;;64.30;25.92;;;;;;;0.24;100.00;101074.13;5058251;28;20036;-78
2021/01/17 01:01:53;;;;;;;66.70;26.92;;;;;;;0.14;100.00;101083.06;5043428;28;20028;-74
2021/01/17 01:04:19;;;;;;;63.75;27.90;;;;;;;0.19;100.00;101081.22;5070975;28;20226;-75
2021/01/17 01:06:44;;;;;;;65.00;27.63;;;;;;;0.11;100.00;101080.47;5061848;28;20888;-75
2021/01/17 01:09:15;;;;;;;66.10;27.85;;;;;;;0.16;100.00;101078.63;5059611;28;20046;-74
2021/01/17 01:11:41;;;;;;;66.65;26.98;;;;;;;0.15;100.00;101079.53;5072444;28;20156;-77
2021/01/17 01:14:07;;;;;;;67.43;27.30;;;;;;;0.10;100.00;101074.34;5074622;28;20111;-75
2021/01/17 01:16:33;;;;;;;63.30;26.65;;;;;;;0.15;100.00;101066.34;5070501;28;20033;-75
2021/01/17 01:18:59;;;;;;;69.22;27.42;;;;;;;0.13;100.00;101074.25;5054997;28;20032;-75
2021/01/17 01:21:29;;;;;;;66.45;26.05;;;;;;;0.21;100.00;101071.50;5074826;28;20032;-75
2021/01/17 01:23:55;;;;;;;66.03;27.67;;;;;;;0.19;100.00;101065.38;5072553;28;20024;-75
2021/01/17 01:26:25;;;;;;;58.00;26.35;;;;;;;0.17;100.00;101075.97;5068780;28;20032;-75
2021/01/17 01:28:53;;;;;;;61.45;25.45;;;;;;;0.10;100.00;101081.38;5069835;28;20028;-75
2021/01/17 01:31:22;;;;;;;68.10;26.75;;;;;;;0.10;100.00;101084.00;5066680;28;20059;-75
2021/01/17 01:33:49;;;;;;;64.63;26.90;;;;;;;0.10;100.00;101073.47;5036152;28;20073;-75
2021/01/17 01:36:22;;;;;;;66.28;26.90;;;;;;;0.19;100.00;101078.56;5075064;28;20031;-75
2021/01/17 01:38:49;;;;;;;61.08;26.90;;;;;;;0.17;100.00;101073.34;5075442;28;20028;-75
2021/01/17 01:41:19;;;;;;;62.38;26.10;;;;;;;0.24;100.00;101071.47;5052161;28;20037;-75
2021/01/17 01:43:46;;;;;;;62.83;26.23;;;;;;;0.21;100.00;101071.50;5058579;28;20028;-76
2021/01/17 01:46:14;;;;;;;68.57;26.90;;;;;;;0.15;100.00;101074.25;5071061;28;20123;-74
2021/01/17 01:48:41;;;;;;;62.80;27.80;;;;;;;0.22;100.00;101070.63;5055039;28;20051;-75
2021/01/17 01:51:07;;;;;;;63.83;26.83;;;;;;;0.12;100.00;101071.69;5086514;28;20036;-75
2021/01/17 01:53:32;;;;;;;69.80;27.95;;;;;;;0.19;100.00;101063.59;5052374;28;20489;-75
2021/01/17 01:55:59;;;;;;;64.68;26.35;;;;;;;0.13;100.00;101066.34;5079587;28;20020;-75
2021/01/17 01:58:27;;;;;;;65.35;27.17;;;;;;;0.07;100.00;101063.81;5052890;28;20397;-75
2021/01/17 02:00:53;;;;;;;69.07;27.92;;;;;;;0.22;100.00;101063.56;5069807;28;20079;-75
2021/01/17 02:03:18;;;;;;;62.20;26.02;;;;;;;0.22;100.00;101062.69;5070029;28;20036;-74
2021/01/17 02:05:44;;;;;;;65.40;27.05;;;;;;;0.23;100.00;101069.72;5070022;28;20029;-74
2021/01/17 02:08:16;;;;;;;61.72;26.48;;;;;;;0.31;100.00;101071.31;5068801;28;20036;-75
2021/01/17 02:10:43;;;;;;;70.27;27.70;;;;;;;0.17;100.00;101065.44;5052676;28;20106;-75
2021/01/17 02:13:23;;;;;;;70.55;27.30;;;;;;;0.20;100.00;101064.47;5055148;28;20294;-74
2021/01/17 02:15:53;;;;;;;66.47;26.23;;;;;;;0.16;100.00;101076.00;5051648;28;20386;-75
2021/01/17 02:18:22;;;;;;;67.53;26.75;;;;;;;0.17;100.00;101064.56;5058135;28;20102;-74
2021/01/17 02:20:49;;;;;;;66.88;26.30;;;;;;;0.27;100.00;101055.56;5059689;28;20123;-76
2021/01/17 02:23:33;;;;;;;64.28;25.95;;;;;;;0.25;100.00;101063.50;5069807;28;20036;-74
2021/01/17 02:25:59;;;;;;;68.10;26.25;;;;;;;0.27;100.00;101060.84;5026631;28;20543;-74
2021/01/17 02:28:24;;;;;;;73.07;27.27;;;;;;;0.38;100.00;101054.47;5051437;28;20035;-76
2021/01/17 02:30:52;;;;;;;64.43;24.95;;;;;;;0.33;100.00;101052.81;5049061;28;20187;-75
2021/01/17 02:33:22;;;;;;;61.38;25.50;;;;;;;0.20;100.00;101061.84;5075262;28;20024;-75
2021/01/17 02:35:51;;;;;;;65.60;26.45;;;;;;;0.15;100.00;101059.28;5057034;28;20035;-75
2021/01/17 02:38:44;;;;;;;66.10;26.42;;;;;;;0.33;100.00;101061.63;5054157;28;20135;-75
2021/01/17 02:41:51;;;;;;;67.93;27.00;;;;;;;0.31;100.00;101046.69;5069971;28;20031;-75
2021/01/17 02:44:18;;;;;;;65.93;27.17;;;;;;;0.20;100.00;101048.66;5041380;28;20039;-75
2021/01/17 02:46:44;;;;;;;69.93;27.08;;;;;;;0.38;100.00;101043.91;5069080;28;20397;-75
2021/01/17 02:49:10;;;;;;;63.45;26.30;;;;;;;0.19;100.00;101047.78;5050511;28;20036;-76
2021/01/17 02:51:35;;;;;;;66.25;26.45;;;;;;;0.34;100.00;101036.97;5068693;28;20062;-76
2021/01/17 02:54:09;;;;;;;63.05;26.90;;;;;;;0.25;100.00;101036.22;5049868;28;20043;-75
2021/01/17 02:56:39;;;;;;;72.65;28.55;;;;;;;0.26;100.00;101030.06;5037315;28;20515;-75
2021/01/17 02:59:06;;;;;;;73.80;26.73;;;;;;;0.15;100.00;101039.94;5063048;28;20032;-75
2021/01/17 03:01:37;;;;;;;65.57;27.85;;;;;;;0.14;100.00;101038.19;5056633;28;20490;-75
2021/01/17 03:04:18;;;;;;;64.78;25.17;;;;;;;0.19;100.00;101046.91;5069357;28;20119;-75
2021/01/17 03:06:46;;;;;;;61.58;26.08;;;;;;;0.19;100.00;101037.22;5051922;28;20035;-75
2021/01/17 03:09:12;;;;;;;59.30;24.63;;;;;;;0.18;100.00;101046.06;5069152;28;20032;-76
2021/01/17 03:11:38;;;;;;;69.63;26.13;;;;;;;0.24;100.00;101047.72;5054472;28;20522;-75
2021/01/17 03:14:06;;;;;;;65.70;25.67;;;;;;;0.40;100.00;101046.53;5069975;28;20119;-74
2021/01/17 03:16:34;;;;;;;66.63;26.50;;;;;;;0.29;100.00;101035.31;5053046;28;20082;-74
2021/01/17 03:18:59;;;;;;;66.07;26.15;;;;;;;0.34;100.00;101030.81;5053857;28;20127;-74
2021/01/17 03:21:25;;;;;;;60.00;25.20;;;;;;;0.46;100.00;101041.16;5068082;28;20108;-78
2021/01/17 03:23:50;;;;;;;61.95;25.20;;;;;;;0.46;100.00;101033.22;5051393;28;20123;-75
2021/01/17 03:26:16;;;;;;;68.78;25.92;;;;;;;0.34;100.00;101030.81;5100108;28;20115;-74
2021/01/17 03:28:42;;;;;;;62.95;25.77;;;;;;;0.23;100.00;101028.38;5053725;28;20024;-75
2021/01/17 03:31:08;;;;;;;68.53;26.30;;;;;;;0.29;100.00;101030.91;5066028;28;20130;-74
2021/01/17 03:33:33;;;;;;;68.00;25.60;;;;;;;0.22;100.00;101041.59;5062026;28;20035;-74
2021/01/17 03:35:59;;;;;;;66.25;25.48;;;;;;;0.35;100.00;101037.84;5075862;28;20416;-75
2021/01/17 03:38:24;;;;;;;66.85;26.15;;;;;;;0.35;100.00;101035.19;5054256;28;20043;-75
2021/01/17 03:40:49;;;;;;;65.95;26.25;;;;;;;0.44;100.00;101034.16;5068970;28;20033;-74
2021/01/17 03:43:15;;;;;;;63.53;26.40;;;;;;;0.34;100.00;101030.81;5072342;28;20048;-75
2021/01/17 03:45:41;;;;;;;63.78;25.58;;;;;;;0.41;100.00;101021.88;5051430;28;20521;-76
2021/01/17 03:48:06;;;;;;;60.58;25.77;;;;;;;0.38;100.00;101027.22;5035901;28;20021;-74
2021/01/17 03:50:32;;;;;;;62.47;26.05;;;;;;;0.50;100.00;101026.97;5068428;28;20440;-74
2021/01/17 03:52:58;;;;;;;67.78;25.83;;;;;;;0.34;100.00;101028.16;5065894;28;20028;-75
2021/01/17 03:55:23;;;;;;;62.65;25.88;;;;;;;0.28;100.00;101026.50;5052367;28;20040;-75
2021/01/17 03:57:48;;;;;;;69.30;27.40;;;;;;;0.32;100.00;101027.31;5058116;28;20042;-74
2021/01/17 04:00:17;;;;;;;65.75;26.48;;;;;;;0.24;100.00;101030.13;5068958;28;20033;-77
2021/01/17 04:02:43;;;;;;;68.72;26.40;;;;;;;0.29;100.00;101032.66;5093686;28;20501;-75
2021/01/17 04:05:09;;;;;;;69.78;25.50;;;;;;;0.29;100.00;101027.38;5072953;28;20039;-74
2021/01/17 04:07:34;;;;;;;67.07;26.15;;;;;;;0.30;100.00;101024.72;5073011;28;20190;-74
2021/01/17 04:10:00;;;;;;;63.15;26.85;;;;;;;0.30;100.00;101024.72;5075899;28;20107;-76
2021/01/17 04:12:26;;;;;;;61.92;26.02;;;;;;;0.37;100.00;101036.06;5072257;28;20032;-74
2021/01/17 04:14:51;;;;;;;65.95;25.42;;;;;;;0.33;100.00;101035.22;5045642;28;20387;-75
2021/01/17 04:17:17;;;;;;;68.38;26.52;;;;;;;0.28;100.00;101031.78;5057775;28;20508;-75
2021/01/17 04:19:42;;;;;;;66.85;26.85;;;;;;;0.30;100.00;101031.78;5091541;28;20119;-74
2021/01/17 04:22:08;;;;;;;65.20;25.92;;;;;;;0.35;100.00;101027.28;5060116;28;20037;-74
2021/01/17 04:24:34;;;;;;;72.95;25.58;;;;;;;0.28;100.00;101033.56;5055514;28;20147;-74
2021/01/17 04:26:59;;;;;;;69.60;26.27;;;;;;;0.21;100.00;101031.91;5079250;28;20102;-75
2021/01/17 04:29:27;;;;;;;67.63;25.88;;;;;;;0.23;100.00;101033.66;5075621;28;20086;-75
2021/01/17 04:31:53;;;;;;;63.60;26.00;;;;;;;0.20;100.00;101028.41;5055540;28;20043;-74
2021/01/17 04:34:18;;;;;;;61.10;25.48;;;;;;;0.33;100.00;101031.69;5070524;28;20020;-75
2021/01/17 04:36:47;;;;;;;67.20;26.50;;;;;;;0.40;100.00;101034.22;5062678;28;20474;-75
2021/01/17 04:39:13;;;;;;;67.88;24.65;;;;;;;0.40;100.00;101030.69;5080445;28;20075;-74
2021/01/17 04:41:44;;;;;;;66.05;26.08;;;;;;;0.36;100.00;101036.94;5071515;28;20078;-75
2021/01/17 04:44:19;;;;;;;69.05;27.40;;;;;;;0.40;100.00;101031.56;5075471;28;20490;-76
2021/01/17 04:46:44;;;;;;;67.90;26.08;;;;;;;0.40;100.00;101042.13;5075396;28;20083;-75
2021/01/17 04:49:10;;;;;;;64.82;26.65;;;;;;;0.32;100.00;101035.25;5074844;28;20029;-75
2021/01/17 04:51:36;;;;;;;63.05;25.30;;;;;;;0.34;100.00;101034.31;5091025;28;20099;-74
2021/01/17 04:54:04;;;;;;;71.40;25.70;;;;;;;0.41;100.00;101027.16;5055606;28;20061;-74
2021/01/17 04:56:42;;;;;;;61.15;24.85;;;;;;;0.35;100.00;101030.78;5071898;28;20024;-74
2021/01/17 04:59:07;;;;;;;67.05;24.83;;;;;;;0.56;100.00;101037.44;5063889;28;20029;-75
2021/01/17 05:02:10;;;;;;;69.57;27.10;;;;;;;0.46;100.00;101025.31;5072226;28;20035;-75
2021/01/17 05:04:41;;;;;;;70.95;25.73;;;;;;;0.52;100.00;101026.97;5070058;28;20039;-74
2021/01/17 05:07:16;;;;;;;70.57;25.63;;;;;;;0.49;100.00;101027.91;5088955;28;20111;-75
2021/01/17 05:10:05;;;;;;;68.85;24.92;;;;;;;0.42;100.00;101033.31;5053610;28;20123;-74
2021/01/17 05:12:59;;;;;;;70.75;25.30;;;;;;;0.45;100.00;101033.25;5053039;28;20056;-76
2021/01/17 05:15:25;;;;;;;66.65;24.88;;;;;;;0.36;100.00;101029.03;5050567;28;20493;-75
2021/01/17 05:17:55;;;;;;;70.13;25.90;;;;;;;0.36;100.00;101029.03;5053476;28;20118;-75
2021/01/17 05:20:23;;;;;;;72.18;28.80;;;;;;;0.47;100.00;101031.47;5092300;28;20659;-76
2021/01/17 05:22:50;;;;;;;109.10;48.05;;;;;;;0.46;100.00;101025.31;5072633;28;20035;-75
2021/01/17 05:25:17;;;;;;;231.05;98.28;;;;;;;0.51;100.00;101034.00;5071553;28;20545;-74
2021/01/17 05:27:49;;;;;;;185.23;77.38;;;;;;;0.48;100.00;101031.44;5053368;28;20546;-75
2021/01/17 05:30:14;;;;;;;228.90;95.00;;;;;;;0.42;100.00;101033.31;5070193;28;20024;-74
2021/01/17 05:32:40;;;;;;;381.35;174.82;;;;;;;0.44;100.00;101029.75;5053299;28;20504;-74
2021/01/17 05:35:06;;;;;;;339.05;138.90;;;;;;;0.38;100.00;101028.09;5071987;28;20692;-74
2021/01/17 05:37:31;;;;;;;513.22;228.65;;;;;;;0.35;100.00;101032.56;5068832;28;20746;-74
2021/01/17 05:40:01;;;;;;;366.17;143.48;;;;;;;0.44;100.00;101032.38;5060725;28;20203;-76
2021/01/17 05:42:43;;;;;;;258.70;101.80;;;;;;;0.41;100.00;101027.16;5073692;28;20059;-74
2021/01/17 05:45:36;;;;;;;131.80;51.35;;;;;;;0.44;100.00;101032.38;5071343;28;20115;-75
2021/01/17 05:48:05;;;;;;;256.45;97.07;;;;;;;0.44;100.00;101032.38;5071833;28;20526;-75
2021/01/17 05:50:33;;;;;;;162.20;68.15;;;;;;;0.47;100.00;101032.34;5061733;28;20107;-72
2021/01/17 05:53:04;;;;;;;322.27;143.80;;;;;;;0.51;100.00;101027.84;5053083;28;20032;-73
2021/01/17 05:55:34;;;;;;;119.68;57.35;;;;;;;0.49;100.00;101035.84;5050018;28;20021;-73
2021/01/17 05:58:22;;;;;;;98.63;41.72;;;;;;;0.57;100.00;101044.47;5068272;28;20044;-72
2021/01/17 06:01:15;;;;;;;110.85;50.95;;;;;;;0.41;100.00;101032.44;5056357;28;20120;-73
2021/01/17 06:03:52;;;;;;;129.45;58.00;;;;;;;0.41;100.00;101045.66;5057821;28;20064;-73
2021/01/17 06:06:31;;;;;;;115.32;51.00;;;;;;;0.48;100.00;101056.97;5053084;28;20028;-72
2021/01/17 06:08:58;;;;;;;80.82;29.00;;;;;;;0.55;100.00;101046.28;5037512;28;20036;-72
2021/01/17 06:11:24;;;;;;;75.13;28.92;;;;;;;0.51;100.00;101044.56;5057406;28;20082;-72
2021/01/17 06:13:55;;;;;;;75.07;28.58;;;;;;;0.47;100.00;101039.38;5051030;28;20028;-73
2021/01/17 06:16:26;;;;;;;71.97;27.92;;;;;;;0.52;100.00;101048.97;5070884;28;20563;-73
2021/01/17 06:18:56;;;;;;;74.82;29.40;;;;;;;0.47;100.00;101048.19;5071873;28;20071;-73
2021/01/17 06:21:24;;;;;;;77.15;29.20;;;;;;;0.46;100.00;101051.72;5057361;28;20417;-73
2021/01/17 06:23:59;;;;;;;77.18;29.50;;;;;;;0.59;100.00;101047.97;5028268;28;20116;-72
2021/01/17 06:26:33;;;;;;;81.28;31.42;;;;;;;0.58;100.00;101046.22;5086203;28;20478;-73
2021/01/17 06:28:59;;;;;;;90.20;33.90;;;;;;;0.62;100.00;101039.09;5069191;28;20029;-73
2021/01/17 06:31:27;;;;;;;86.40;34.50;;;;;;;0.59;100.00;101047.09;5077482;28;20031;-73
2021/01/17 06:34:06;;;;;;;77.90;30.23;;;;;;;0.53;100.00;101047.19;5034735;28;20028;-73
2021/01/17 06:36:32;;;;;;;84.03;30.80;;;;;;;0.49;100.00;101050.81;5045601;28;20052;-73
2021/01/17 06:38:58;;;;;;;79.28;29.63;;;;;;;0.54;100.00;101048.94;5068699;28;20204;-73
2021/01/17 06:41:39;;;;;;;80.63;28.92;;;;;;;0.59;100.00;101047.97;5041033;28;20127;-73
2021/01/17 06:44:10;;;;;;;80.43;29.10;;;;;;;0.58;100.00;101043.56;5068144;28;20033;-73
2021/01/17 06:46:46;;;;;;;81.20;29.60;;;;;;;0.55;100.00;101043.66;5054858;28;20016;-73
2021/01/17 06:49:24;;;;;;;81.22;30.90;;;;;;;0.45;100.00;101046.47;5057218;28;20032;-73
2021/01/17 06:51:51;;;;;;;74.57;27.83;;;;;;;0.54;100.00;101048.94;5064338;28;20028;-73
2021/01/17 06:54:22;;;;;;;87.47;30.52;;;;;;;0.46;100.00;101056.13;5068112;28;20050;-73
2021/01/17 06:56:50;;;;;;;88.07;32.15;;;;;;;0.47;100.00;101058.75;5051915;28;20279;-73
2021/01/17 06:59:49;;;;;;;90.32;30.10;;;;;;;0.54;100.00;101057.75;5055698;28;20047;-73
2021/01/17 07:02:14;;;;;;;87.68;30.27;;;;;;;0.45;100.00;101054.38;5022380;28;20083;-73
2021/01/17 07:04:41;;;;;;;92.25;31.73;;;;;;;0.48;100.00;101065.78;5065448;28;20056;-73
2021/01/17 07:07:45;;;;;;;75.25;28.88;;;;;;;0.56;100.00;101068.25;5064346;28;20490;-74
2021/01/17 07:10:13;;;;;;;;;;;;;;;0.51;100.00;101067.47;5036060;28;20032;-74
2021/01/17 07:12:54;;;;;;;72.75;27.30;;;;;;;0.51;100.00;101078.91;5090250;28;19918;-73
2021/01/17 07:15:35;;;;;;;86.53;31.25;;;;;;;0.55;100.00;101082.38;5073382;28;20159;-74
2021/01/17 07:18:06;;;;;;;81.88;29.10;;;;;;;0.53;100.00;101082.41;5067687;28;20033;-73
2021/01/17 07:20:34;;;;;;;75.28;29.40;;;;;;;0.59;100.00;101095.50;5054190;28;20028;-74
2021/01/17 07:23:02;;;;;;;77.65;28.52;;;;;;;0.66;100.00;101083.06;5069157;28;20040;-74
2021/01/17 07:25:31;;;;;;;84.15;30.67;;;;;;;0.66;100.00;101097.16;5053764;28;20028;-74
2021/01/17 07:28:11;;;;;;;87.72;30.80;;;;;;;0.69;100.00;101094.44;5066059;28;20032;-73
2021/01/17 07:30:42;;;;;;;80.10;29.45;;;;;;;0.64;100.00;101095.41;5050286;28;20040;-74
2021/01/17 07:33:08;;;;;;;89.43;29.70;;;;;;;0.69;100.00;101097.06;5083829;28;20029;-74
2021/01/17 07:35:39;;;;;;;77.80;29.90;;;;;;;0.66;100.00;101107.72;5052814;28;20497;-73
2021/01/17 07:38:10;;;;;;;73.97;28.58;;;;;;;0.68;100.00;101105.88;5076052;28;20063;-74
2021/01/17 07:40:52;;;;;;;70.65;27.38;;;;;;;0.61;100.00;101104.28;5064912;28;20032;-74
2021/01/17 07:43:24;;;;;;;82.82;32.28;;;;;;;0.76;100.00;101108.41;5071475;28;20032;-73
2021/01/17 07:45:50;;;;;;;84.63;32.35;;;;;;;0.74;100.00;101104.94;5054938;28;20111;-73
2021/01/17 07:48:17;;;;;;;73.68;29.98;;;;;;;0.91;100.00;101113.44;5071985;28;20119;-73
2021/01/17 07:50:48;;;;;;;78.38;27.42;;;;;;;1.01;100.00;101109.69;5046118;28;20028;-74
2021/01/17 07:53:23;;;;;;;80.63;28.30;;;;;;;0.86;100.00;101115.28;5056035;28;20032;-74
2021/01/17 07:55:50;;;;;;;74.00;28.35;;;;;;;0.77;100.00;101120.72;5067426;28;20032;-74
2021/01/17 07:58:17;;;;;;;94.03;34.78;;;;;;;0.79;100.00;101119.81;5054039;28;20520;-73
2021/01/17 08:00:43;;;;;;;89.30;31.60;;;;;;;0.91;100.00;101128.41;5034913;28;20089;-74
2021/01/17 08:03:23;;;;;;;82.10;30.50;;;;;;;0.84;100.00;101134.69;5067805;28;20024;-74
2021/01/17 08:05:59;;;;;;;79.97;32.95;;;;;;;0.90;100.00;101135.47;5064394;28;20111;-74
2021/01/17 08:08:28;;;;;;;78.70;31.65;;;;;;;0.86;100.00;101140.84;5069677;28;20048;-73
2021/01/17 08:10:53;;;;;;;82.85;32.20;;;;;;;0.89;100.00;101140.75;5052276;28;20036;-73
2021/01/17 08:13:19;;;;;;;73.50;27.35;;;;;;;1.01;100.00;101140.53;5084854;28;20402;-74
2021/01/17 08:16:07;;;;;;;84.30;28.42;;;;;;;1.09;100.00;101139.50;5062334;28;20481;-75
2021/01/17 08:18:34;;;;;;;82.15;29.73;;;;;;;1.09;100.00;101144.81;5033522;28;20028;-75
2021/01/17 08:21:19;;;;;;;72.38;26.88;;;;;;;0.98;100.00;101145.91;5081510;28;20521;-75
2021/01/17 08:24:18;;;;;;;74.43;27.17;;;;;;;0.87;100.00;101158.41;5073590;28;20453;-76
2021/01/17 08:27:02;;;;;;;83.57;27.88;;;;;;;0.88;100.00;101160.16;5070692;28;20406;-76
2021/01/17 08:29:28;;;;;;;80.65;27.13;;;;;;;0.92;100.00;101167.16;5092293;28;20028;-76
2021/01/17 08:31:54;;;;;;;76.72;27.63;;;;;;;1.03;100.00;101162.53;5053044;28;20047;-77
2021/01/17 08:34:28;;;;;;;72.95;27.40;;;;;;;1.01;100.00;101178.41;5071524;28;20052;-77
2021/01/17 08:36:55;;;;;;;71.95;26.40;;;;;;;0.91;100.00;101181.25;5088004;28;20028;-77
2021/01/17 08:39:48;;;;;;;70.00;27.25;;;;;;;1.21;100.00;101178.94;5071183;28;20094;-77
2021/01/17 08:42:27;;;;;;;71.03;25.93;;;;;;;1.13;100.00;101177.31;5053979;28;20055;-77
2021/01/17 08:44:54;;;;;;;71.05;26.05;;;;;;;0.99;100.00;101171.44;5075126;28;20033;-77
2021/01/17 08:47:21;;;;;;;75.93;25.27;;;;;;;1.03;100.00;101176.63;5071505;28;20115;-77
2021/01/17 08:49:47;;;;;;;66.30;25.98;;;;;;;1.07;100.00;101180.94;5058887;28;20032;-78
2021/01/17 08:52:14;;;;;;;65.57;25.70;;;;;;;1.07;100.00;101188.00;5060167;28;20083;-78
2021/01/17 08:55:06;;;;;;;76.65;28.42;;;;;;;1.16;100.00;101190.50;5097542;28;20037;-79
2021/01/17 08:57:42;;;;;;;72.70;26.95;;;;;;;1.09;100.00;101196.78;5060943;28;20051;-79
2021/01/17 09:00:10;;;;;;;74.55;29.50;;;;;;;1.01;100.00;101198.69;5060911;28;20052;-78
2021/01/17 09:02:37;;;;;;;75.53;28.88;;;;;;;1.19;100.00;101203.66;5064557;28;20490;-78
2021/01/17 09:05:04;;;;;;;75.45;27.90;;;;;;;1.11;100.00;101197.66;5056949;28;20035;-78
2021/01/17 09:07:37;;;;;;;76.45;30.67;;;;;;;1.16;100.00;101201.06;5056519;28;20410;-77
2021/01/17 09:10:08;;;;;;;81.20;31.60;;;;;;;1.09;100.00;101197.66;5070929;28;20131;-78
2021/01/17 09:12:37;;;;;;;76.03;28.45;;;;;;;1.11;100.00;101200.28;5052260;28;20033;-78
2021/01/17 09:15:33;;;;;;;88.07;35.38;;;;;;;1.24;100.00;101201.78;5053616;28;20055;-77
2021/01/17 09:18:00;;;;;;;105.93;38.60;;;;;;;1.12;100.00;101207.28;5005811;28;20194;-77
2021/01/17 09:20:27;;;;;;;122.88;42.70;;;;;;;1.06;100.00;101213.56;5056833;28;20032;-78
2021/01/17 09:22:55;;;;;;;108.70;40.45;;;;;;;1.05;100.00;101216.25;5063426;28;20086;-77
2021/01/17 09:25:22;;;;;;;118.43;41.85;;;;;;;1.04;100.00;101212.75;5035868;28;20028;-77
2021/01/17 09:27:55;;;;;;;97.00;35.33;;;;;;;1.10;100.00;101222.34;5064528;28;20028;-77
2021/01/17 09:30:24;;;;;;;88.75;29.15;;;;;;;1.09;100.00;101224.09;5049453;28;20115;-77
2021/01/17 09:32:51;;;;;;;90.40;37.05;;;;;;;1.15;100.00;101233.69;5066557;28;20039;-77
2021/01/17 09:35:17;;;;;;;104.03;47.50;;;;;;;1.13;100.00;101238.13;5065195;28;20112;-76
2021/01/17 09:37:43;;;;;;;93.32;36.05;;;;;;;1.14;100.00;101239.88;5064829;28;20059;-76
2021/01/17 09:40:09;;;;;;;74.25;33.30;;;;;;;1.19;100.00;101245.94;5068530;28;20048;-78
2021/01/17 09:42:35;;;;;;;73.40;29.45;;;;;;;1.23;100.00;101247.66;5080379;28;20032;-77
2021/01/17 09:45:04;;;;;;;75.53;28.73;;;;;;;1.18;100.00;101245.06;5066098;28;20028;-78
2021/01/17 09:47:30;;;;;;;72.75;26.85;;;;;;;1.19;100.00;101253.88;5048848;28;20459;-77
2021/01/17 09:50:06;;;;;;;65.00;25.90;;;;;;;1.23;100.00;101252.94;5079865;28;20032;-76
2021/01/17 09:52:39;;;;;;;71.22;27.38;;;;;;;1.25;100.00;101256.41;5051967;28;20028;-78
2021/01/17 09:55:12;;;;;;;74.68;29.40;;;;;;;1.30;100.00;101261.66;5034025;28;20028;-76
2021/01/17 09:57:39;;;;;;;82.50;34.35;;;;;;;1.27;100.00;101265.22;5060694;28;20033;-77
2021/01/17 10:00:28;;;;;;;78.55;32.85;;;;;;;1.32;100.00;101270.41;5049333;28;20033;-78
2021/01/17 10:02:55;;;;;;;81.88;32.22;;;;;;;1.31;100.00;101272.19;5055630;28;20044;-77
2021/01/17 10:05:28;;;;;;;75.28;28.40;;;;;;;1.32;100.00;101273.94;5079724;28;20105;-76
2021/01/17 10:08:04;;;;;;;60.50;24.05;;;;;;;1.37;100.00;101274.72;5048630;28;20110;-78
2021/01/17 10:10:30;;;;;;;67.60;25.77;;;;;;;1.35;100.00;101276.53;5068636;28;20048;-77
2021/01/17 10:12:56;;;;;;;69.38;25.23;;;;;;;1.44;100.00;101273.72;5071563;28;20364;-78
2021/01/17 10:15:23;;;;;;;69.97;27.20;;;;;;;1.45;100.00;101280.75;5071905;28;20028;-78
2021/01/17 10:17:50;;;;;;;69.85;26.45;;;;;;;1.43;100.00;101271.97;5056886;28;20148;-77
2021/01/17 10:20:27;;;;;;;73.70;24.55;;;;;;;1.43;100.00;101287.81;5051720;28;20063;-78
2021/01/17 10:22:57;;;;;;;66.10;24.50;;;;;;;1.40;100.00;101277.31;5069001;28;20548;-77
2021/01/17 10:25:23;;;;;;;66.22;25.77;;;;;;;1.41;100.00;101289.66;5057519;28;20028;-77
2021/01/17 10:27:48;;;;;;;65.18;26.83;;;;;;;1.41;100.00;101294.94;5056748;28;20368;-78
2021/01/17 10:30:21;;;;;;;69.40;27.67;;;;;;;1.42;100.00;101291.38;5051521;28;20043;-77
2021/01/17 10:32:48;;;;;;;;;;;;;;;1.54;100.00;101295.59;5046605;28;20126;-78
2021/01/17 10:35:21;;;;;;;61.60;24.85;;;;;;;1.53;100.00;101297.38;5091505;28;19919;-78
2021/01/17 10:37:51;;;;;;;79.03;28.13;;;;;;;1.70;100.00;101297.03;5069180;28;20029;-78
2021/01/17 10:40:25;;;;;;;83.28;28.83;;;;;;;1.70;100.00;101297.03;5076806;28;20449;-77
2021/01/17 10:42:55;;;;;;;71.25;26.70;;;;;;;1.68;100.00;101298.84;5070225;28;20043;-78
2021/01/17 10:45:27;;;;;;;75.18;29.33;;;;;;;1.69;100.00;101297.06;5070923;28;20024;-78
2021/01/17 10:48:14;;;;;;;78.10;29.25;;;;;;;1.77;100.00;101297.81;5059164;28;20190;-77
2021/01/17 10:50:46;;;;;;;72.38;27.10;;;;;;;1.75;100.00;101299.59;5053034;28;20040;-78
2021/01/17 10:53:45;;;;;;;68.85;27.83;;;;;;;1.83;100.00;101301.22;5069008;28;20048;-78
2021/01/17 10:56:15;;;;;;;66.47;27.48;;;;;;;1.81;100.00;101299.47;5055249;28;20045;-78
2021/01/17 10:58:43;;;;;;;82.97;27.60;;;;;;;1.87;100.00;101300.25;5029665;28;20755;-78
2021/01/17 11:01:09;;;;;;;79.78;28.50;;;;;;;1.91;100.00;101301.06;5041540;28;20556;-78
2021/01/17 11:03:36;;;;;;;83.55;30.95;;;;;;;1.93;100.00;101296.59;5053236;28;20039;-79
2021/01/17 11:06:21;;;;;;;92.90;33.92;;;;;;;2.00;100.00;101312.34;5037951;28;20028;-79
2021/01/17 11:08:51;;;;;;;104.75;38.47;;;;;;;2.02;100.00;101309.66;5068021;28;20078;-79
2021/01/17 11:11:18;;;;;;;104.00;34.95;;;;;;;2.04;100.00;101315.78;5051333;28;20047;-79
2021/01/17 11:13:54;;;;;;;97.40;31.15;;;;;;;2.09;100.00;101310.41;5064665;28;20119;-78
2021/01/17 11:16:35;;;;;;;78.53;28.95;;;;;;;2.07;100.00;101307.78;5065392;28;20035;-79
2021/01/17 11:19:00;;;;;;;81.35;27.52;;;;;;;2.08;100.00;101306.91;5032231;28;20044;-77
2021/01/17 11:21:29;;;;;;;89.95;31.25;;;;;;;2.15;100.00;101305.88;5079199;28;20028;-77
2021/01/17 11:23:55;;;;;;;90.38;29.50;;;;;;;2.23;100.00;101316.28;5048251;28;20032;-77